Time;durP1;ratioP1;P1;durP2;ratioP2;P2;SDS_P1;SDS_P2;PMS_P1;PMS_P2;Temp;Humidity;BMP_temperature;BMP_pressure;BME280_temperature;BME280_humidity;BME280_pressure;Samples;Min_cycle;Max_cycle;Signal;HPM_P1;HPM_P2
2023/03/26 00:01:12;;;;;;;4.47;1.52;;;;;;;15.50;38.93;102146.66;5071819;28;20123;-43
2023/03/26 00:03:39;;;;;;;5.57;1.98;;;;;;;15.11;38.57;102156.34;5084047;28;20028;-42
2023/03/26 00:06:13;;;;;;;4.10;1.77;;;;;;;14.78;39.70;102158.94;5092642;28;20078;-45
2023/03/26 00:08:41;;;;;;;5.82;1.77;;;;;;;14.80;40.39;102154.19;5099922;28;20035;-43
2023/03/26 00:11:09;;;;;;;5.97;2.20;;;;;;;14.78;41.04;102138.22;5093628;28;20023;-42
2023/03/26 00:13:36;;;;;;;6.72;2.15;;;;;;;14.68;41.47;102135.06;5087842;28;20035;-42
2023/03/26 00:16:03;;;;;;;6.00;1.88;;;;;;;14.64;41.32;102135.66;5103705;28;20043;-43
2023/03/26 00:18:30;;;;;;;9.15;2.05;;;;;;;14.45;42.43;102138.06;5090501;28;20061;-43
2023/03/26 00:21:01;;;;;;;4.53;1.85;;;;;;;14.29;42.18;102141.06;5076388;28;20098;-41
2023/03/26 00:23:29;;;;;;;8.50;1.90;;;;;;;14.20;42.90;102134.16;5086289;28;20072;-42
2023/03/26 00:25:55;;;;;;;9.13;2.38;;;;;;;14.20;42.87;102128.78;5076771;28;20043;-44
2023/03/26 00:28:23;;;;;;;5.65;1.95;;;;;;;14.18;42.74;102136.25;5084418;28;20047;-46
2023/03/26 00:30:56;;;;;;;6.72;1.90;;;;;;;14.22;43.07;102137.53;5084659;28;20063;-42
2023/03/26 00:33:22;;;;;;;7.50;2.15;;;;;;;14.03;42.50;102138.22;5095705;28;20020;-43
2023/03/26 00:35:57;;;;;;;4.22;1.67;;;;;;;14.02;42.45;102128.47;5092411;28;20032;-44
2023/03/26 00:38:24;;;;;;;6.05;2.20;;;;;;;14.04;42.93;102132.63;5090935;28;20480;-43
2023/03/26 00:40:51;;;;;;;8.48;2.05;;;;;;;13.97;43.39;102142.53;5098926;28;20035;-46
2023/03/26 00:43:21;;;;;;;20.35;2.70;;;;;;;13.89;43.25;102130.06;5092072;28;20443;-42
2023/03/26 00:45:49;;;;;;;5.00;2.05;;;;;;;13.85;43.89;102131.47;5104353;28;20571;-42
2023/03/26 00:48:16;;;;;;;5.30;1.90;;;;;;;13.80;44.38;102128.53;5106818;28;20111;-41
2023/03/26 00:50:45;;;;;;;7.45;1.92;;;;;;;13.88;43.52;102123.03;5103085;28;20252;-43
2023/03/26 00:53:12;;;;;;;6.93;1.83;;;;;;;13.69;43.57;102126.38;5107412;28;20036;-42
2023/03/26 00:55:44;;;;;;;7.05;2.30;;;;;;;13.60;43.97;102119.47;5090466;28;20020;-41
2023/03/26 00:58:12;;;;;;;6.72;2.22;;;;;;;13.52;44.53;102125.00;5092315;28;20023;-43
2023/03/26 01:00:52;;;;;;;14.85;2.65;;;;;;;13.38;45.62;102122.22;5090808;28;20028;-44
2023/03/26 01:03:21;;;;;;;6.70;2.53;;;;;;;13.24;46.16;102119.56;5091832;28;20048;-41
2023/03/26 01:05:57;;;;;;;7.20;2.13;;;;;;;13.14;45.82;102123.38;5091406;28;20036;-41
2023/03/26 01:08:38;;;;;;;6.38;2.20;;;;;;;12.91;45.92;102117.34;5097294;28;20035;-42
2023/03/26 01:11:27;;;;;;;5.90;2.53;;;;;;;12.91;45.79;102139.69;5112473;28;20032;-41
2023/03/26 01:13:57;;;;;;;8.82;2.88;;;;;;;12.69;46.92;102121.84;5105423;28;20032;-42
2023/03/26 01:16:28;;;;;;;13.30;3.42;;;;;;;12.62;46.82;102120.94;5104142;28;20028;-41
2023/03/26 01:18:57;;;;;;;9.85;3.03;;;;;;;12.40;46.57;102120.06;5085205;28;20031;-41
2023/03/26 01:21:28;;;;;;;6.85;2.78;;;;;;;12.32;46.39;102115.59;5086366;28;20405;-41
2023/03/26 01:24:01;;;;;;;8.48;3.33;;;;;;;12.19;46.56;102125.34;5087193;28;20032;-40
2023/03/26 01:26:33;;;;;;;8.30;3.08;;;;;;;12.14;46.83;102123.19;5095584;28;20108;-40
2023/03/26 01:29:03;;;;;;;6.90;3.13;;;;;;;12.10;47.27;102122.75;5093731;28;20077;-41
2023/03/26 01:31:46;;;;;;;18.80;3.17;;;;;;;12.03;47.65;102123.66;5090864;28;20035;-41
2023/03/26 01:34:48;;;;;;;8.02;3.30;;;;;;;11.97;48.14;102125.22;5082832;28;20028;-41
2023/03/26 01:37:37;;;;;;;7.93;3.20;;;;;;;12.05;48.13;102122.47;5087922;28;20385;-42
2023/03/26 01:40:24;;;;;;;10.40;3.35;;;;;;;12.09;49.17;102122.91;5100243;28;20112;-42
2023/03/26 01:43:03;;;;;;;9.43;3.45;;;;;;;12.11;48.51;102124.41;5069319;28;20459;-46
2023/03/26 01:45:37;;;;;;;7.30;3.05;;;;;;;11.97;49.45;102127.91;5093286;28;20028;-43
2023/03/26 01:48:05;;;;;;;12.55;3.60;;;;;;;11.83;48.63;102124.22;5091313;28;20028;-44
2023/03/26 01:50:34;;;;;;;12.85;3.97;;;;;;;11.68;49.82;102125.16;5096807;28;20046;-43
2023/03/26 01:53:00;;;;;;;10.70;3.42;;;;;;;11.59;50.68;102119.03;5090619;28;20028;-42
2023/03/26 01:55:54;;;;;;;12.15;3.80;;;;;;;11.47;50.39;102128.53;5091569;28;20031;-42
2023/03/26 01:58:38;;;;;;;7.55;3.78;;;;;;;11.30;51.11;102112.56;5073671;28;20036;-44
2023/03/26 02:01:15;;;;;;;11.10;3.55;;;;;;;11.16;51.83;102118.72;5083656;28;20032;-43
2023/03/26 02:03:50;;;;;;;12.63;3.92;;;;;;;10.92;52.74;102113.50;5083579;28;20122;-40
2023/03/26 02:06:25;;;;;;;10.20;3.92;;;;;;;10.89;53.59;102116.56;5100913;28;20081;-41
2023/03/26 02:09:03;;;;;;;12.18;3.60;;;;;;;10.88;53.80;102117.53;5094553;28;20500;-39
2023/03/26 02:11:30;;;;;;;9.25;3.72;;;;;;;10.82;53.18;102121.75;5078743;28;20028;-41
2023/03/26 02:13:57;;;;;;;13.38;3.53;;;;;;;10.74;53.51;102121.81;5086869;28;20028;-41
2023/03/26 02:16:23;;;;;;;9.70;4.10;;;;;;;10.65;54.29;102121.03;5105646;28;20031;-41
2023/03/26 02:18:55;;;;;;;11.80;4.00;;;;;;;10.56;54.47;102125.59;5097303;28;20028;-42
2023/03/26 02:21:24;;;;;;;8.50;3.28;;;;;;;10.58;54.41;102125.41;5076670;28;20056;-46
2023/03/26 02:24:02;;;;;;;12.18;3.42;;;;;;;10.54;54.68;102132.94;5105188;28;20059;-42
2023/03/26 02:26:30;;;;;;;13.23;4.78;;;;;;;10.39;54.96;102128.53;5103259;28;20425;-39
2023/03/26 02:28:57;;;;;;;10.55;4.90;;;;;;;10.31;55.40;102132.88;5089537;28;20040;-39
2023/03/26 02:31:26;;;;;;;11.60;3.90;;;;;;;10.37;55.33;102133.19;5083006;28;20121;-39
2023/03/26 02:33:54;;;;;;;12.25;4.32;;;;;;;10.37;55.38;102146.56;5089405;28;20104;-39
2023/03/26 02:36:26;;;;;;;9.30;3.83;;;;;;;10.34;56.06;102150.44;5094726;28;20052;-39
2023/03/26 02:38:56;;;;;;;13.25;4.05;;;;;;;10.29;56.13;102150.97;5088748;28;20023;-39
2023/03/26 02:41:23;;;;;;;10.90;3.88;;;;;;;10.38;55.99;102148.25;5076399;28;20515;-40
2023/03/26 02:43:49;;;;;;;11.63;4.10;;;;;;;10.33;56.07;102154.13;5100048;28;20066;-39
2023/03/26 02:46:15;;;;;;;9.35;3.75;;;;;;;10.37;55.35;102157.28;5112904;28;20039;-39
2023/03/26 02:48:42;;;;;;;9.82;3.72;;;;;;;10.34;55.34;102169.19;5097118;28;20024;-39
2023/03/26 02:51:09;;;;;;;11.88;3.70;;;;;;;10.27;55.78;102173.53;5092285;28;20039;-40
2023/03/26 02:53:36;;;;;;;9.73;4.70;;;;;;;10.35;55.70;102172.69;5094077;28;20537;-40
2023/03/26 02:56:02;;;;;;;13.32;3.90;;;;;;;10.30;56.05;102178.56;5094008;28;20063;-39
2023/03/26 02:58:29;;;;;;;8.30;4.30;;;;;;;10.33;56.09;102183.56;5094463;28;20043;-39
2023/03/26 03:00:56;;;;;;;12.18;3.70;;;;;;;10.40;55.80;102176.53;5094179;28;20028;-39
2023/03/26 03:03:23;;;;;;;9.75;3.67;;;;;;;10.34;55.74;102177.22;5093785;28;20088;-39
2023/03/26 03:05:51;;;;;;;11.73;3.88;;;;;;;10.32;56.30;102176.53;5093844;28;20020;-39
2023/03/26 03:08:21;;;;;;;10.38;3.78;;;;;;;10.29;55.65;102183.06;5093587;28;20149;-39
2023/03/26 03:10:58;;;;;;;7.57;3.33;;;;;;;10.27;55.78;102184.22;5076313;28;20111;-39
2023/03/26 03:13:24;;;;;;;11.48;3.33;;;;;;;10.29;55.23;102183.06;5088405;28;20044;-39
2023/03/26 03:15:51;;;;;;;8.90;3.30;;;;;;;10.17;55.44;102181.72;5078747;28;20468;-39
2023/03/26 03:18:17;;;;;;;10.70;3.20;;;;;;;10.08;55.41;102174.72;5077343;28;20111;-38
2023/03/26 03:20:43;;;;;;;8.10;2.83;;;;;;;10.16;54.82;102187.22;5090229;28;20031;-38
2023/03/26 03:23:10;;;;;;;10.55;3.25;;;;;;;9.93;55.00;102195.13;5092914;28;20099;-38
2023/03/26 03:25:37;;;;;;;14.73;4.07;;;;;;;9.92;55.07;102196.13;5088073;28;20016;-39
2023/03/26 03:28:03;;;;;;;11.93;3.50;;;;;;;9.88;55.24;102198.31;5089831;28;20396;-38
2023/03/26 03:30:30;;;;;;;13.43;3.50;;;;;;;9.96;54.51;102203.66;5094124;28;20077;-38
2023/03/26 03:33:01;;;;;;;13.00;2.95;;;;;;;9.81;55.16;102202.66;5101249;28;20038;-38
2023/03/26 03:35:32;;;;;;;7.57;3.05;;;;;;;9.78;55.30;102211.88;5106368;28;20036;-42
2023/03/26 03:37:59;;;;;;;11.80;3.67;;;;;;;9.78;55.06;102211.88;5097417;28;20027;-43
2023/03/26 03:40:25;;;;;;;11.55;3.75;;;;;;;9.90;55.03;102207.00;5093529;28;20028;-43
2023/03/26 03:42:52;;;;;;;8.32;3.38;;;;;;;9.76;55.19;102208.50;5087725;28;20511;-43
2023/03/26 03:45:18;;;;;;;8.30;3.03;;;;;;;9.83;55.32;102226.56;5093124;28;20032;-43
2023/03/26 03:47:44;;;;;;;6.57;2.90;;;;;;;9.92;55.38;102217.53;5097005;28;20364;-43
2023/03/26 03:50:11;;;;;;;9.73;3.60;;;;;;;9.87;54.37;102219.88;5113706;28;20120;-43
2023/03/26 03:52:37;;;;;;;8.98;3.47;;;;;;;9.87;54.19;102227.91;5102255;28;20040;-43
2023/03/26 03:55:04;;;;;;;12.63;3.58;;;;;;;9.91;53.69;102218.53;5092522;28;20019;-43
2023/03/26 03:57:32;;;;;;;9.68;3.22;;;;;;;9.79;53.56;102223.41;5093548;28;20035;-43
2023/03/26 03:59:58;;;;;;;8.77;2.88;;;;;;;9.78;53.22;102224.41;5092723;28;20036;-43
2023/03/26 04:02:29;;;;;;;10.73;3.90;;;;;;;9.59;54.66;102232.72;5092295;28;20123;-43
2023/03/26 04:04:59;;;;;;;9.35;2.88;;;;;;;9.77;53.26;102234.25;5089435;28;20032;-43
2023/03/26 04:07:29;;;;;;;9.45;2.88;;;;;;;9.82;52.63;102239.09;5093170;28;20096;-43
2023/03/26 04:09:56;;;;;;;8.93;3.38;;;;;;;9.60;52.91;102240.56;5099650;28;20099;-43
2023/03/26 04:12:22;;;;;;;9.90;3.15;;;;;;;9.52;53.15;102243.25;5097546;28;20545;-43
2023/03/26 04:14:48;;;;;;;5.78;2.97;;;;;;;9.59;52.61;102243.41;5113576;28;20123;-44
2023/03/26 04:17:14;;;;;;;8.73;3.13;;;;;;;9.61;52.68;102249.47;5094546;28;20107;-43
2023/03/26 04:19:42;;;;;;;10.88;3.35;;;;;;;9.50;53.00;102238.06;5077948;28;20037;-44
2023/03/26 04:22:10;;;;;;;6.65;3.80;;;;;;;9.49;53.19;102239.09;5103859;28;20051;-44
2023/03/26 04:24:38;;;;;;;8.10;3.20;;;;;;;9.48;52.11;102250.75;5073997;28;20028;-44
2023/03/26 04:27:10;;;;;;;7.85;2.72;;;;;;;9.48;52.60;102252.59;5076319;28;20040;-44
2023/03/26 04:29:42;;;;;;;5.43;2.75;;;;;;;9.24;53.23;102251.53;5071772;28;20040;-44
2023/03/26 04:32:28;;;;;;;8.65;3.17;;;;;;;9.24;53.29;102256.03;5090249;28;20028;-44
2023/03/26 04:34:59;;;;;;;6.03;2.67;;;;;;;9.43;53.18;102258.41;5073934;28;20028;-44
2023/03/26 04:37:40;;;;;;;12.77;3.38;;;;;;;9.28;53.11;102257.41;5096838;28;20032;-43
2023/03/26 04:40:13;;;;;;;8.23;3.05;;;;;;;9.05;53.68;102273.19;5080141;28;20464;-44
2023/03/26 04:42:46;;;;;;;8.52;3.03;;;;;;;9.14;54.20;102280.22;5094411;28;20038;-44
2023/03/26 04:45:21;;;;;;;3.45;2.70;;;;;;;9.19;54.21;102282.41;5071352;28;20024;-43
2023/03/26 04:47:49;;;;;;;7.85;3.30;;;;;;;9.23;54.33;102284.59;5089250;28;20031;-43
2023/03/26 04:50:16;;;;;;;11.43;3.70;;;;;;;9.06;54.26;102282.88;5098757;28;20081;-43
2023/03/26 04:52:43;;;;;;;6.05;3.05;;;;;;;9.05;53.87;102281.19;5092027;28;20039;-43
2023/03/26 04:55:23;;;;;;;8.93;3.83;;;;;;;8.96;54.16;102271.47;5089949;28;20086;-43
2023/03/26 04:57:54;;;;;;;8.38;3.33;;;;;;;8.81;54.64;102265.06;5100853;28;20028;-43
2023/03/26 05:00:21;;;;;;;6.95;3.60;;;;;;;8.71;55.33;102268.66;5091907;28;20035;-43
2023/03/26 05:02:52;;;;;;;7.05;3.10;;;;;;;8.74;55.25;102259.53;5091463;28;20047;-43
2023/03/26 05:05:19;;;;;;;7.28;3.50;;;;;;;8.62;55.58;102269.63;5075131;28;20035;-43
2023/03/26 05:07:45;;;;;;;8.73;3.40;;;;;;;8.55;56.26;102273.06;5085552;28;20024;-43
2023/03/26 05:10:14;;;;;;;7.43;3.45;;;;;;;8.46;56.93;102274.88;5072831;28;20041;-43
2023/03/26 05:12:40;;;;;;;7.07;3.55;;;;;;;8.62;56.55;102272.31;5081127;28;20085;-43
2023/03/26 05:15:08;;;;;;;8.07;3.10;;;;;;;8.52;56.98;102276.91;5076047;28;20480;-43
2023/03/26 05:17:40;;;;;;;11.18;3.72;;;;;;;8.62;56.80;102276.81;5105750;28;20036;-43
2023/03/26 05:20:28;;;;;;;8.35;3.80;;;;;;;8.43;57.36;102288.50;5091478;28;20052;-43
2023/03/26 05:22:55;;;;;;;9.32;3.33;;;;;;;8.38;57.64;102293.47;5072378;28;20119;-43
2023/03/26 05:25:22;;;;;;;5.10;3.25;;;;;;;8.45;57.14;102295.38;5072513;28;20380;-44
2023/03/26 05:27:48;;;;;;;11.98;3.47;;;;;;;8.50;57.11;102296.75;5071517;28;20016;-44
2023/03/26 05:30:17;;;;;;;8.07;3.55;;;;;;;8.49;57.23;102303.91;5094699;28;20035;-44
2023/03/26 05:32:47;;;;;;;8.63;3.33;;;;;;;8.43;56.98;102291.19;5085376;28;20385;-44
2023/03/26 05:35:15;;;;;;;9.80;3.20;;;;;;;8.45;57.47;102292.72;5087172;28;20084;-44
2023/03/26 05:37:44;;;;;;;7.95;2.78;;;;;;;8.32;56.80;102284.25;5077561;28;20031;-44
2023/03/26 05:40:13;;;;;;;7.00;3.17;;;;;;;8.27;57.69;102294.53;5094814;28;20024;-44
2023/03/26 05:42:40;;;;;;;4.72;2.78;;;;;;;8.36;56.91;102290.97;5079244;28;20396;-44
2023/03/26 05:45:09;;;;;;;11.18;2.97;;;;;;;8.39;57.38;102288.00;5087448;28;20098;-44
2023/03/26 05:47:35;;;;;;;6.95;3.17;;;;;;;8.31;57.80;102284.41;5096270;28;20052;-44
2023/03/26 05:50:02;;;;;;;6.95;3.50;;;;;;;8.45;56.54;102297.22;5099274;28;20032;-44
2023/03/26 05:52:28;;;;;;;8.27;2.58;;;;;;;8.20;57.23;102294.31;5075264;28;20041;-44
2023/03/26 05:54:54;;;;;;;8.05;2.90;;;;;;;8.32;57.01;102294.06;5108289;28;20097;-44
2023/03/26 05:57:27;;;;;;;10.25;2.80;;;;;;;8.36;56.75;102282.97;5087502;28;20016;-44
2023/03/26 05:59:55;;;;;;;6.72;2.83;;;;;;;8.42;56.60;102286.84;5103752;28;20622;-44
2023/03/26 06:02:22;;;;;;;6.40;3.00;;;;;;;8.42;56.14;102282.34;5093142;28;20123;-44
2023/03/26 06:04:49;;;;;;;6.30;3.15;;;;;;;8.28;57.11;102285.56;5105520;28;20054;-44
2023/03/26 06:07:16;;;;;;;17.35;3.30;;;;;;;8.26;57.47;102278.69;5085215;28;20385;-44
2023/03/26 06:09:43;;;;;;;7.18;3.00;;;;;;;8.53;56.39;102281.25;5091830;28;20435;-43
2023/03/26 06:12:10;;;;;;;5.93;2.78;;;;;;;8.53;55.62;102288.41;5076426;28;20031;-43
2023/03/26 06:14:37;;;;;;;5.43;2.97;;;;;;;8.06;57.12;102270.88;5093797;28;20024;-43
2023/03/26 06:17:03;;;;;;;8.30;3.00;;;;;;;8.20;56.49;102280.97;5094853;28;20027;-43
2023/03/26 06:19:29;;;;;;;5.13;2.60;;;;;;;8.17;56.11;102269.81;5094651;28;20032;-43
2023/03/26 06:21:56;;;;;;;8.20;2.90;;;;;;;8.16;56.21;102271.63;5094969;28;20372;-43
2023/03/26 06:24:22;;;;;;;9.68;3.15;;;;;;;8.11;56.79;102273.94;5088899;28;20437;-43
2023/03/26 06:26:48;;;;;;;9.90;2.92;;;;;;;8.04;56.56;102278.19;5087756;28;20031;-43
2023/03/26 06:29:14;;;;;;;5.70;2.63;;;;;;;7.98;56.51;102283.31;5080582;28;20020;-43
2023/03/26 06:31:41;;;;;;;7.05;2.50;;;;;;;7.86;55.67;102280.88;5077635;28;20388;-43
2023/03/26 06:34:07;;;;;;;6.90;3.08;;;;;;;7.86;56.55;102282.69;5076296;28;20029;-43
2023/03/26 06:36:33;;;;;;;6.38;2.80;;;;;;;7.88;56.83;102275.38;5074278;28;20166;-44
2023/03/26 06:39:00;;;;;;;6.03;2.60;;;;;;;7.80;56.84;102280.66;5075296;28;20531;-44
2023/03/26 06:41:26;;;;;;;4.57;2.13;;;;;;;7.72;57.34;102288.56;5079685;28;20031;-43
2023/03/26 06:43:52;;;;;;;7.00;2.22;;;;;;;7.67;56.90;102283.69;5097350;28;20036;-44
2023/03/26 06:46:20;;;;;;;5.25;2.47;;;;;;;7.85;56.64;102281.03;5082118;28;20425;-43
2023/03/26 06:48:46;;;;;;;8.48;2.88;;;;;;;7.73;56.37;102285.75;5074723;28;20369;-44
2023/03/26 06:51:12;;;;;;;5.95;2.60;;;;;;;7.65;57.21;102299.00;5073092;28;20044;-44
2023/03/26 06:53:39;;;;;;;7.63;2.65;;;;;;;7.80;56.99;102299.31;5095488;28;20511;-44
2023/03/26 06:56:05;;;;;;;6.93;3.13;;;;;;;7.60;56.68;102295.94;5083564;28;20481;-43
2023/03/26 06:58:32;;;;;;;5.60;2.35;;;;;;;7.56;57.12;102300.75;5086632;28;20031;-44
2023/03/26 07:00:58;;;;;;;8.20;2.65;;;;;;;7.64;57.12;102300.81;5076168;28;20405;-44
2023/03/26 07:03:24;;;;;;;6.28;2.60;;;;;;;7.61;56.68;102293.13;5088318;28;20658;-43
2023/03/26 07:05:50;;;;;;;4.20;2.40;;;;;;;7.60;56.96;102298.59;5081932;28;20103;-43
2023/03/26 07:08:17;;;;;;;4.93;2.45;;;;;;;7.45;57.24;102292.97;5091304;28;20027;-43
2023/03/26 07:10:44;;;;;;;6.95;2.40;;;;;;;7.46;57.06;102305.28;5077833;28;20078;-43
2023/03/26 07:13:10;;;;;;;5.78;2.33;;;;;;;7.41;56.91;102297.75;5079126;28;20111;-44
2023/03/26 07:15:36;;;;;;;4.93;2.42;;;;;;;7.48;56.34;102297.13;5078754;28;20181;-43
2023/03/26 07:18:03;;;;;;;5.82;2.42;;;;;;;7.40;56.01;102290.75;5090563;28;20024;-43
2023/03/26 07:20:29;;;;;;;4.97;2.30;;;;;;;7.32;56.61;102287.13;5083579;28;20111;-43
2023/03/26 07:22:56;;;;;;;6.05;2.47;;;;;;;7.47;55.72;102298.13;5077162;28;20029;-44
2023/03/26 07:25:22;;;;;;;7.55;2.22;;;;;;;7.34;55.84;102299.34;5091144;28;20025;-43
2023/03/26 07:27:56;;;;;;;7.43;2.72;;;;;;;7.31;55.61;102314.75;5085272;28;20032;-43
2023/03/26 07:30:31;;;;;;;7.78;2.10;;;;;;;7.26;55.80;102314.38;5084634;28;20027;-43
2023/03/26 07:33:05;;;;;;;6.65;2.35;;;;;;;7.38;55.12;102318.50;5076899;28;20040;-43
2023/03/26 07:35:47;;;;;;;6.70;2.00;;;;;;;7.43;55.20;102316.22;5091264;28;20044;-43
2023/03/26 07:38:45;;;;;;;5.13;2.30;;;;;;;7.39;55.18;102325.53;5081432;28;20033;-44
2023/03/26 07:41:16;;;;;;;4.65;2.10;;;;;;;7.38;55.05;102329.16;5090416;28;20079;-44
2023/03/26 07:44:00;;;;;;;6.78;2.58;;;;;;;7.33;55.57;102321.63;5076693;28;20032;-43
2023/03/26 07:46:33;;;;;;;6.65;2.22;;;;;;;7.27;55.91;102332.84;5100982;28;20028;-43
2023/03/26 07:49:00;;;;;;;6.40;2.20;;;;;;;7.34;55.29;102333.97;5100820;28;20024;-44
2023/03/26 07:51:28;;;;;;;10.77;2.10;;;;;;;7.36;55.93;102333.81;5088055;28;20028;-43
2023/03/26 07:53:55;;;;;;;6.82;2.70;;;;;;;7.18;56.49;102333.75;5075413;28;20028;-43
2023/03/26 07:57:02;;;;;;;5.70;2.30;;;;;;;7.22;56.70;102340.47;5087965;28;20021;-43
2023/03/26 07:59:33;;;;;;;4.55;2.35;;;;;;;7.21;56.89;102338.78;5086096;28;20024;-43
2023/03/26 08:02:24;;;;;;;6.95;2.67;;;;;;;7.27;56.64;102345.34;5103204;28;20040;-43
2023/03/26 08:05:17;;;;;;;11.32;2.45;;;;;;;7.16;56.29;102335.72;5082912;28;20052;-43
2023/03/26 08:08:03;;;;;;;8.25;2.88;;;;;;;7.13;57.19;102331.53;5080066;28;20037;-43
2023/03/26 08:10:47;;;;;;;8.18;2.60;;;;;;;7.25;56.96;102339.34;5084109;28;20029;-44
2023/03/26 08:13:28;;;;;;;5.45;2.63;;;;;;;7.15;57.28;102334.88;5072760;28;20210;-43
2023/03/26 08:16:18;;;;;;;7.07;2.60;;;;;;;7.12;57.24;102329.88;5082719;28;20058;-43
2023/03/26 08:18:48;;;;;;;8.13;2.28;;;;;;;7.15;56.80;102328.72;5076532;28;20104;-43
2023/03/26 08:21:27;;;;;;;5.93;2.17;;;;;;;7.18;57.17;102332.94;5076943;28;20486;-43
2023/03/26 08:23:53;;;;;;;7.03;2.53;;;;;;;7.15;56.59;102326.88;5090935;28;20091;-43
2023/03/26 08:26:40;;;;;;;6.57;2.22;;;;;;;7.02;57.12;102329.06;5092398;28;20028;-43
2023/03/26 08:29:27;;;;;;;8.43;2.85;;;;;;;7.10;57.04;102321.16;5079402;28;20027;-43
2023/03/26 08:31:56;;;;;;;4.82;2.22;;;;;;;7.07;56.57;102321.47;5100957;28;20032;-43
2023/03/26 08:34:22;;;;;;;6.78;2.25;;;;;;;7.15;56.69;102324.22;5078123;28;20020;-43
2023/03/26 08:36:48;;;;;;;9.02;3.13;;;;;;;7.02;57.53;102310.41;5088089;28;20034;-43
2023/03/26 08:39:15;;;;;;;7.03;2.42;;;;;;;7.03;57.61;102322.75;5086662;28;20032;-43
2023/03/26 08:42:02;;;;;;;8.98;2.40;;;;;;;7.01;57.15;102321.22;5081124;28;20036;-43
2023/03/26 08:45:04;;;;;;;5.65;2.55;;;;;;;7.05;56.80;102312.81;5071661;28;20043;-43
2023/03/26 08:47:42;;;;;;;9.43;3.08;;;;;;;7.04;56.92;102313.75;5030676;28;20086;-43
2023/03/26 08:50:32;;;;;;;5.75;2.03;;;;;;;6.99;57.18;102301.88;5071712;28;20028;-43
2023/03/26 08:53:34;;;;;;;5.28;2.30;;;;;;;6.94;57.21;102294.34;5074572;28;20404;-43
2023/03/26 08:56:18;;;;;;;9.18;2.67;;;;;;;6.96;57.79;102292.38;5085686;28;20085;-43
2023/03/26 08:59:15;;;;;;;4.63;2.30;;;;;;;6.88;58.44;102289.59;5082843;28;20034;-43
2023/03/26 09:02:06;;;;;;;6.28;2.40;;;;;;;6.85;58.02;102282.75;5084733;28;20044;-43
2023/03/26 09:05:06;;;;;;;6.70;2.28;;;;;;;6.84;58.97;102289.06;5076155;28;20051;-43
2023/03/26 09:07:44;;;;;;;5.55;2.47;;;;;;;6.84;59.15;102280.25;5081655;28;20098;-43
2023/03/26 09:10:22;;;;;;;8.75;2.65;;;;;;;6.88;58.58;102284.28;5083569;28;20051;-43
2023/03/26 09:13:11;;;;;;;5.78;2.55;;;;;;;6.94;58.98;102288.16;5076273;28;20484;-43
2023/03/26 09:16:20;;;;;;;8.38;2.20;;;;;;;6.87;59.62;102285.25;5071285;28;20082;-43
2023/03/26 09:19:10;;;;;;;3.72;2.08;;;;;;;6.72;59.21;102274.28;5060488;28;20040;-43
2023/03/26 09:21:57;;;;;;;5.63;2.47;;;;;;;6.76;59.34;102272.13;5089018;28;20035;-43
2023/03/26 09:25:00;;;;;;;5.85;2.33;;;;;;;6.69;59.64;102279.88;5082051;28;20122;-43
2023/03/26 09:27:35;;;;;;;4.55;1.95;;;;;;;6.60;60.37;102284.22;5091097;28;20494;-43
2023/03/26 09:30:32;;;;;;;10.27;2.38;;;;;;;6.63;60.25;102284.94;5092409;28;20039;-43
2023/03/26 09:33:24;;;;;;;18.10;2.38;;;;;;;6.65;59.74;102286.47;5085409;28;20072;-44
2023/03/26 09:36:13;;;;;;;8.40;2.03;;;;;;;6.59;58.77;102290.53;5082584;28;20487;-43
2023/03/26 09:38:44;;;;;;;6.03;1.88;;;;;;;6.68;58.34;102296.00;5066579;28;20037;-43
2023/03/26 09:42:02;;;;;;;9.32;1.77;;;;;;;6.58;56.83;102282.69;5075378;28;20031;-43
2023/03/26 09:44:49;;;;;;;3.30;1.48;;;;;;;6.55;57.98;102277.66;5049031;28;20037;-43
2023/03/26 09:47:47;;;;;;;4.78;2.00;;;;;;;6.61;57.19;102272.63;5080993;28;20047;-43
2023/03/26 09:50:22;;;;;;;5.82;1.75;;;;;;;6.49;57.59;102276.41;5068257;28;20036;-43
2023/03/26 09:53:12;;;;;;;3.67;1.80;;;;;;;6.49;58.01;102280.91;5068358;28;20029;-43
2023/03/26 09:55:59;;;;;;;5.68;2.30;;;;;;;6.46;58.76;102270.56;5069059;28;20375;-43
2023/03/26 09:58:45;;;;;;;5.20;2.03;;;;;;;6.39;59.14;102272.13;5069074;28;20067;-43
2023/03/26 10:01:20;;;;;;;5.53;2.03;;;;;;;6.57;58.77;102273.88;5068927;28;20112;-43
2023/03/26 10:04:04;;;;;;;4.30;2.13;;;;;;;6.45;58.67;102288.34;5081343;28;20099;-43
2023/03/26 10:06:36;;;;;;;4.75;1.85;;;;;;;6.49;57.97;102288.88;5089297;28;20089;-43
2023/03/26 10:09:38;;;;;;;4.15;1.60;;;;;;;6.40;57.89;102293.25;5073118;28;20455;-43
2023/03/26 10:12:28;;;;;;;4.45;1.42;;;;;;;6.49;57.16;102303.00;5069202;28;20180;-43
2023/03/26 10:15:07;;;;;;;2.65;1.30;;;;;;;6.29;57.73;102304.06;5051784;28;20076;-43
2023/03/26 10:18:00;;;;;;;6.95;1.70;;;;;;;6.34;57.92;102305.31;5062765;28;20037;-43
2023/03/26 10:20:40;;;;;;;4.25;1.58;;;;;;;6.44;56.85;102307.09;5082328;28;20442;-43
2023/03/26 10:23:34;;;;;;;5.18;1.80;;;;;;;6.44;56.90;102310.63;5077432;28;20510;-43
2023/03/26 10:26:20;;;;;;;4.50;1.65;;;;;;;6.39;57.12;102302.22;5089148;28;20080;-43
2023/03/26 10:29:21;;;;;;;4.03;1.75;;;;;;;6.48;56.56;102304.00;5082247;28;20036;-43
2023/03/26 10:31:52;;;;;;;3.53;1.50;;;;;;;6.51;55.17;102301.06;5049974;28;20058;-43
2023/03/26 10:34:55;;;;;;;7.35;1.63;;;;;;;6.40;56.55;102306.56;5106216;28;20545;-43
2023/03/26 10:37:47;;;;;;;6.55;1.70;;;;;;;6.32;55.95;102304.59;5082428;28;20132;-43
2023/03/26 10:40:22;;;;;;;3.60;1.50;;;;;;;6.29;56.01;102304.06;5086917;28;20040;-43
2023/03/26 10:43:18;;;;;;;4.05;1.80;;;;;;;6.35;55.68;102306.97;5101403;28;20097;-43
2023/03/26 10:46:05;;;;;;;6.38;1.95;;;;;;;6.31;55.80;102302.91;5077947;28;20044;-43
2023/03/26 10:48:59;;;;;;;8.27;1.83;;;;;;;6.26;56.08;102315.78;5094263;28;20056;-43
2023/03/26 10:51:47;;;;;;;4.15;1.42;;;;;;;6.34;55.88;102317.75;5075058;28;20029;-43
2023/03/26 10:54:13;;;;;;;2.15;1.25;;;;;;;6.21;56.56;102309.22;5073564;28;20044;-43
2023/03/26 10:56:43;;;;;;;2.92;1.30;;;;;;;6.31;55.32;102315.38;5089248;28;20361;-43
2023/03/26 10:59:12;;;;;;;4.45;1.30;;;;;;;6.25;55.77;102319.44;5080507;28;20089;-43
2023/03/26 11:02:09;;;;;;;6.53;1.45;;;;;;;6.23;56.28;102308.13;5092997;28;20040;-43
2023/03/26 11:04:54;;;;;;;5.65;1.50;;;;;;;6.30;55.79;102319.03;5077252;28;20025;-43
2023/03/26 11:07:35;;;;;;;4.47;1.35;;;;;;;6.17;55.43;102319.31;5092378;28;20028;-43
2023/03/26 11:10:05;;;;;;;5.30;1.33;;;;;;;6.11;55.19;102319.00;5087294;28;20391;-43
2023/03/26 11:12:42;;;;;;;2.63;1.40;;;;;;;6.04;55.79;102318.75;5076257;28;20094;-43
2023/03/26 11:15:23;;;;;;;4.95;1.63;;;;;;;6.02;55.79;102316.22;5073486;28;20105;-42
2023/03/26 11:18:22;;;;;;;2.35;1.10;;;;;;;6.14;55.92;102313.44;5100036;28;20051;-42
2023/03/26 11:21:17;;;;;;;3.10;1.38;;;;;;;6.11;55.80;102311.03;5077315;28;20064;-42
2023/03/26 11:23:58;;;;;;;4.20;1.52;;;;;;;6.03;56.06;102312.59;5086881;28;20038;-43
2023/03/26 11:26:51;;;;;;;4.50;1.70;;;;;;;6.09;55.79;102311.19;5093197;28;20077;-42
2023/03/26 11:29:45;;;;;;;5.40;1.33;;;;;;;6.14;54.94;102300.97;5091885;28;20032;-42
2023/03/26 11:32:21;;;;;;;3.55;1.52;;;;;;;6.17;54.82;102310.50;5076383;28;20172;-43
2023/03/26 11:35:00;;;;;;;4.13;1.42;;;;;;;6.19;54.56;102303.22;5091260;28;20024;-42
2023/03/26 11:37:40;;;;;;;3.60;1.50;;;;;;;6.06;54.97;102296.38;5080838;28;20044;-42
2023/03/26 11:40:20;;;;;;;6.45;1.60;;;;;;;6.08;55.00;102306.84;5089423;28;20115;-43
2023/03/26 11:42:49;;;;;;;5.28;1.48;;;;;;;6.06;55.33;102298.19;5086325;28;20032;-42
2023/03/26 11:45:23;;;;;;;3.28;1.33;;;;;;;6.00;55.89;102296.94;5082467;28;20097;-42
2023/03/26 11:48:08;;;;;;;3.30;1.38;;;;;;;5.98;56.29;102301.53;5072845;28;20039;-42
2023/03/26 11:50:40;;;;;;;4.23;1.60;;;;;;;6.01;54.62;102301.28;5073330;28;20031;-42
2023/03/26 11:53:28;;;;;;;6.35;1.95;;;;;;;5.95;54.97;102301.84;5078106;28;20330;-42
2023/03/26 11:56:05;;;;;;;4.13;1.40;;;;;;;5.92;55.61;102296.78;5088093;28;20050;-42
2023/03/26 11:58:40;;;;;;;3.30;1.40;;;;;;;5.88;55.46;102308.63;5073011;28;20052;-42
2023/03/26 12:01:21;;;;;;;3.42;1.33;;;;;;;6.04;55.28;102305.44;5078820;28;20503;-43
2023/03/26 12:04:09;;;;;;;4.97;1.88;;;;;;;5.85;56.36;102310.75;5085960;28;20517;-42